createdAt,value
2022-09-20T00:02:03.199Z,17.60
2022-09-20T00:04:31.978Z,17.50
2022-09-20T00:07:00.226Z,17.90
2022-09-20T00:09:28.737Z,17.90
2022-09-20T00:11:56.931Z,17.30
2022-09-20T00:14:26.008Z,17.10
2022-09-20T00:16:54.651Z,18.90
2022-09-20T00:19:22.915Z,19.60
2022-09-20T00:21:51.507Z,19.60
2022-09-20T00:24:19.775Z,18.90
2022-09-20T00:26:48.037Z,20.20
2022-09-20T00:29:16.860Z,19.30
2022-09-20T00:31:49.153Z,19.50
2022-09-20T00:34:35.938Z,20.60
2022-09-20T00:37:04.375Z,19.70
2022-09-20T00:39:32.929Z,18.70
2022-09-20T00:42:01.557Z,19.20
2022-09-20T00:44:50.405Z,18.50
2022-09-20T00:47:25.991Z,18.00
2022-09-20T00:49:57.789Z,18.70
2022-09-20T00:52:27.361Z,18.00
2022-09-20T00:54:56.423Z,19.20
2022-09-20T00:57:25.051Z,18.80
2022-09-20T00:59:54.747Z,19.10
2022-09-20T01:02:26.404Z,18.60
2022-09-20T01:04:57.362Z,18.40
2022-09-20T01:07:26.282Z,16.60
2022-09-20T01:09:55.335Z,17.10
2022-09-20T01:12:26.799Z,15.60
2022-09-20T01:14:57.943Z,18.00
2022-09-20T01:17:28.154Z,18.30
2022-09-20T01:20:10.179Z,17.60
2022-09-20T01:22:47.235Z,18.20
2022-09-20T01:25:18.435Z,17.20
2022-09-20T01:27:47.640Z,17.20
2022-09-20T01:30:18.818Z,18.30
2022-09-20T01:32:56.922Z,18.00
2022-09-20T01:35:28.188Z,17.10
2022-09-20T01:38:08.911Z,17.80
2022-09-20T01:40:41.785Z,17.00
2022-09-20T01:43:18.453Z,17.90
2022-09-20T01:45:48.846Z,18.60
2022-09-20T01:48:27.284Z,17.80
2022-09-20T01:51:31.737Z,16.50
2022-09-20T01:54:15.057Z,18.00
2022-09-20T01:57:03.979Z,17.00
2022-09-20T01:59:53.296Z,16.80
2022-09-20T02:02:48.034Z,17.20
2022-09-20T02:05:57.081Z,16.90
2022-09-20T02:08:38.886Z,16.50
2022-09-20T02:11:12.973Z,15.80
2022-09-20T02:16:34.676Z,15.90
2022-09-20T02:19:29.774Z,14.50
2022-09-20T02:22:16.157Z,15.90
2022-09-20T02:24:50.764Z,16.40
2022-09-20T02:27:26.086Z,19.70
2022-09-20T02:30:04.485Z,19.00
2022-09-20T02:32:53.663Z,19.10
2022-09-20T02:35:40.199Z,19.40
2022-09-20T02:38:21.216Z,20.40
2022-09-20T02:41:07.650Z,19.80
2022-09-20T02:43:40.742Z,20.90
2022-09-20T02:46:20.873Z,19.60
2022-09-20T02:48:54.816Z,20.80
2022-09-20T02:51:28.275Z,21.20
2022-09-20T02:54:12.443Z,20.40
2022-09-20T02:56:45.775Z,20.40
2022-09-20T02:59:24.144Z,19.80
2022-09-20T03:02:01.007Z,20.80
2022-09-20T03:04:39.725Z,20.20
2022-09-20T03:07:15.841Z,18.90
2022-09-20T03:09:48.101Z,19.00
2022-09-20T03:12:30.010Z,19.90
2022-09-20T03:15:04.482Z,18.20
2022-09-20T03:17:41.903Z,18.30
2022-09-20T03:20:20.013Z,19.20
2022-09-20T03:22:56.943Z,18.10
2022-09-20T03:25:38.523Z,17.90
2022-09-20T03:28:19.777Z,18.20
2022-09-20T03:30:58.043Z,18.50
2022-09-20T03:33:38.507Z,18.50
2022-09-20T03:36:17.064Z,17.40
2022-09-20T03:39:00.869Z,18.50
2022-09-20T03:41:39.119Z,18.00
2022-09-20T03:44:33.957Z,17.70
2022-09-20T03:50:00.553Z,18.80
2022-09-20T03:52:44.849Z,12.40
2022-09-20T03:55:53.355Z,16.70
2022-09-20T03:58:28.771Z,16.20
2022-09-20T04:01:12.097Z,14.60
2022-09-20T04:03:48.861Z,15.80
2022-09-20T04:07:00.365Z,16.50
2022-09-20T04:10:07.459Z,16.00
2022-09-20T04:12:45.315Z,16.00
2022-09-20T04:15:28.724Z,16.10
2022-09-20T04:17:59.985Z,14.00
2022-09-20T04:20:34.261Z,11.90
2022-09-20T04:23:07.671Z,12.60
2022-09-20T04:25:43.757Z,10.20
2022-09-20T04:28:15.570Z,15.50
2022-09-20T04:30:45.717Z,14.10
2022-09-20T04:33:20.554Z,14.60
2022-09-20T04:36:18.101Z,14.50
2022-09-20T04:38:54.902Z,15.10
2022-09-20T04:41:44.246Z,14.90
2022-09-20T04:44:46.678Z,13.70
2022-09-20T04:47:39.216Z,13.90
2022-09-20T04:50:24.263Z,13.70
2022-09-20T04:53:38.648Z,13.90
2022-09-20T04:56:21.250Z,13.60
2022-09-20T04:59:05.842Z,12.90
2022-09-20T05:02:06.665Z,13.60
2022-09-20T05:05:10.438Z,11.70
2022-09-20T05:08:13.853Z,13.40
2022-09-20T05:11:18.444Z,12.60
2022-09-20T05:14:04.290Z,12.30
2022-09-20T05:16:45.185Z,12.50
2022-09-20T05:19:26.309Z,12.00
2022-09-20T05:22:08.228Z,11.10
2022-09-20T05:24:56.041Z,12.00
2022-09-20T05:27:37.855Z,11.30
2022-09-20T05:30:14.612Z,11.30
2022-09-20T05:32:49.038Z,11.20
2022-09-20T05:35:24.704Z,11.80
2022-09-20T05:38:02.178Z,11.40
2022-09-20T05:40:38.995Z,10.40
2022-09-20T05:43:11.300Z,11.50
2022-09-20T05:45:56.643Z,10.90
2022-09-20T05:48:27.403Z,10.80
2022-09-20T05:51:03.513Z,10.00
2022-09-20T05:53:53.161Z,10.00
2022-09-20T05:56:33.644Z,9.80
2022-09-20T05:59:12.386Z,10.20
2022-09-20T06:01:44.149Z,9.50
2022-09-20T06:04:17.898Z,9.60
2022-09-20T06:07:02.870Z,10.80
2022-09-20T06:09:45.618Z,9.00
2022-09-20T06:12:35.140Z,9.60
2022-09-20T06:15:14.120Z,9.80
2022-09-20T06:17:45.704Z,9.20
2022-09-20T06:20:23.280Z,9.10
2022-09-20T06:22:54.354Z,9.60
2022-09-20T06:25:25.857Z,9.10
2022-09-20T06:27:56.564Z,9.40
2022-09-20T06:30:29.248Z,10.00
2022-09-20T06:33:00.032Z,9.50
2022-09-20T06:35:33.434Z,10.50
2022-09-20T06:38:38.429Z,10.80
2022-09-20T06:41:26.284Z,10.60
2022-09-20T06:43:58.147Z,11.00
2022-09-20T06:46:28.598Z,12.40
2022-09-20T06:48:57.815Z,10.30
2022-09-20T06:51:28.202Z,11.60
2022-09-20T06:53:57.522Z,11.40
2022-09-20T06:56:27.945Z,11.40
2022-09-20T06:58:56.421Z,11.40
2022-09-20T07:01:30.244Z,12.20
2022-09-20T07:04:00.739Z,10.60
2022-09-20T07:06:29.234Z,12.30
2022-09-20T07:08:58.923Z,12.10
2022-09-20T07:11:34.505Z,12.10
2022-09-20T07:14:03.173Z,12.70
2022-09-20T07:16:31.920Z,11.80
2022-09-20T07:19:03.382Z,11.70
2022-09-20T07:21:31.848Z,12.40
2022-09-20T07:24:01.755Z,12.30
2022-09-20T07:26:31.380Z,12.90
2022-09-20T07:29:01.735Z,13.20
2022-09-20T07:31:30.366Z,11.60
2022-09-20T07:33:58.722Z,13.30
2022-09-20T07:36:30.002Z,12.40
2022-09-20T07:38:59.211Z,14.30
2022-09-20T07:41:32.242Z,14.90
2022-09-20T07:44:20.357Z,13.00
2022-09-20T07:46:52.782Z,12.70
2022-09-20T07:49:23.276Z,13.80
2022-09-20T07:51:54.156Z,12.00
2022-09-20T07:54:22.843Z,12.90
2022-09-20T07:56:51.238Z,12.40
2022-09-20T07:59:21.414Z,12.80
2022-09-20T08:01:52.374Z,12.90
2022-09-20T08:04:26.224Z,12.30
2022-09-20T08:06:57.609Z,12.10
2022-09-20T08:09:45.774Z,12.90
2022-09-20T08:15:11.144Z,11.40
2022-09-20T08:17:40.454Z,11.90
2022-09-20T08:20:10.493Z,12.50
2022-09-20T08:22:43.531Z,11.60
2022-09-20T08:25:17.260Z,11.00
2022-09-20T08:27:48.267Z,18.00
2022-09-20T08:30:18.603Z,11.30
2022-09-20T08:32:47.116Z,10.90
2022-09-20T08:35:17.760Z,10.20
2022-09-20T08:37:47.072Z,11.20
2022-09-20T08:40:16.193Z,10.40
2022-09-20T08:42:44.927Z,10.70
2022-09-20T08:45:33.670Z,10.50
2022-09-20T08:48:06.706Z,10.30
2022-09-20T08:50:37.356Z,9.30
2022-09-20T08:53:06.011Z,10.60
2022-09-20T08:55:39.779Z,13.70
2022-09-20T08:58:11.743Z,11.50
2022-09-20T09:00:48.244Z,10.50
2022-09-20T09:03:18.143Z,11.00
2022-09-20T09:05:48.127Z,10.70
2022-09-20T09:08:19.293Z,16.80
2022-09-20T09:10:55.336Z,11.00
2022-09-20T09:13:28.706Z,9.20
2022-09-20T09:16:05.059Z,9.70
2022-09-20T09:18:37.159Z,9.10
2022-09-20T09:21:07.187Z,9.20
2022-09-20T09:23:44.668Z,11.00
2022-09-20T09:26:20.627Z,10.90
2022-09-20T09:29:09.369Z,10.90
2022-09-20T09:31:39.221Z,12.50
2022-09-20T09:34:23.952Z,12.80
2022-09-20T09:36:53.782Z,14.00
2022-09-20T09:39:26.064Z,14.50
2022-09-20T09:41:54.916Z,13.50
2022-09-20T09:44:28.268Z,13.30
2022-09-20T09:46:57.711Z,21.70
2022-09-20T09:49:27.823Z,18.30
2022-09-20T09:52:06.991Z,13.70
2022-09-20T09:54:37.832Z,14.70
2022-09-20T09:57:28.473Z,14.90
2022-09-20T10:00:13.222Z,13.40
2022-09-20T10:03:07.397Z,12.60
2022-09-20T10:05:41.169Z,13.20
2022-09-20T10:08:16.930Z,12.90
2022-09-20T10:10:58.834Z,13.30
2022-09-20T10:13:35.081Z,13.30
2022-09-20T10:16:14.285Z,12.60
2022-09-20T10:18:48.994Z,13.20
2022-09-20T10:21:31.285Z,12.60
2022-09-20T10:24:22.004Z,12.40
2022-09-20T10:27:10.712Z,11.40
2022-09-20T10:29:50.830Z,12.40
2022-09-20T10:32:31.583Z,11.30
2022-09-20T10:35:15.952Z,11.90
2022-09-20T10:37:54.867Z,11.70
2022-09-20T10:40:52.125Z,10.00
2022-09-20T10:43:33.050Z,9.60
2022-09-20T10:46:30.967Z,8.50
2022-09-20T10:49:04.335Z,8.50
2022-09-20T10:51:41.120Z,8.30
2022-09-20T10:54:14.879Z,8.80
2022-09-20T10:56:48.721Z,8.60
2022-09-20T11:02:01.875Z,7.30
2022-09-20T11:04:58.541Z,11.00
2022-09-20T11:07:40.508Z,7.40
2022-09-20T11:10:16.907Z,6.90
2022-09-20T11:12:50.447Z,6.40
2022-09-20T11:15:23.171Z,8.20
2022-09-20T11:17:59.067Z,8.40
2022-09-20T11:20:29.153Z,7.00
2022-09-20T11:23:01.409Z,7.30
2022-09-20T11:25:37.189Z,7.00
2022-09-20T11:28:13.596Z,6.50
2022-09-20T11:30:50.741Z,7.20
2022-09-20T11:33:26.107Z,6.70
2022-09-20T11:35:58.727Z,12.10
2022-09-20T11:38:34.773Z,20.50
2022-09-20T11:41:09.180Z,6.90
2022-09-20T11:43:42.580Z,6.80
2022-09-20T11:46:15.403Z,6.40
2022-09-20T11:48:46.835Z,7.80
2022-09-20T11:51:34.312Z,7.30
2022-09-20T11:54:16.056Z,7.30
2022-09-20T11:57:00.086Z,6.50
2022-09-20T11:59:34.865Z,6.50
2022-09-20T12:02:12.565Z,6.30
2022-09-20T12:04:53.039Z,5.60
2022-09-20T12:07:25.554Z,5.90
2022-09-20T12:09:56.973Z,5.50
2022-09-20T12:12:38.194Z,5.10
2022-09-20T12:15:23.893Z,5.20
2022-09-20T12:18:32.316Z,4.00
2022-09-20T12:21:05.314Z,4.30
2022-09-20T12:24:07.705Z,4.60
2022-09-20T12:26:44.045Z,4.70
2022-09-20T12:29:50.065Z,4.80
2022-09-20T12:32:54.433Z,5.10
2022-09-20T12:35:59.529Z,5.30
2022-09-20T12:38:39.264Z,4.60
2022-09-20T12:41:13.403Z,4.30
2022-09-20T12:46:29.854Z,3.90
2022-09-20T12:49:48.512Z,3.80
2022-09-20T12:52:47.095Z,4.20
2022-09-20T12:55:40.293Z,4.40
2022-09-20T12:58:44.540Z,4.20
2022-09-20T13:01:34.622Z,4.30
2022-09-20T13:04:49.460Z,4.50
2022-09-20T13:07:46.969Z,4.00
2022-09-20T13:10:23.946Z,4.10
2022-09-20T13:12:56.904Z,4.50
2022-09-20T13:15:25.817Z,3.80
2022-09-20T13:17:56.209Z,3.90
2022-09-20T13:20:27.536Z,3.60
2022-09-20T13:23:00.300Z,4.10
2022-09-20T13:25:29.737Z,3.50
2022-09-20T13:28:06.024Z,4.10
2022-09-20T13:30:34.930Z,4.00
2022-09-20T13:33:21.873Z,4.20
2022-09-20T13:35:54.054Z,3.90
2022-09-20T13:38:30.126Z,4.30
2022-09-20T13:41:05.782Z,3.20
2022-09-20T13:43:39.513Z,3.00
2022-09-20T13:46:10.325Z,3.10
2022-09-20T13:48:38.722Z,2.70
2022-09-20T13:51:17.730Z,2.50
2022-09-20T13:53:47.241Z,1.30
2022-09-20T13:56:21.270Z,1.20
2022-09-20T13:58:50.859Z,0.90
2022-09-20T14:01:29.646Z,1.10
2022-09-20T14:04:02.504Z,1.00
2022-09-20T14:06:32.573Z,0.90
2022-09-20T14:09:07.178Z,0.90
2022-09-20T14:11:40.757Z,1.10
2022-09-20T14:14:10.742Z,1.10
2022-09-20T14:16:41.213Z,1.20
2022-09-20T14:19:11.093Z,1.00
2022-09-20T14:21:39.448Z,1.10
2022-09-20T14:24:25.577Z,1.20
2022-09-20T14:27:17.331Z,1.30
2022-09-20T14:29:47.155Z,1.40
2022-09-20T14:32:28.139Z,1.30
2022-09-20T14:35:02.445Z,1.20
2022-09-20T14:37:32.005Z,2.20
2022-09-20T14:40:02.827Z,2.10
2022-09-20T14:42:35.443Z,1.80
2022-09-20T14:45:06.195Z,2.00
2022-09-20T14:47:38.822Z,2.10
2022-09-20T14:50:24.297Z,1.90
2022-09-20T14:53:05.626Z,2.70
2022-09-20T14:55:37.361Z,2.40
2022-09-20T14:58:09.837Z,1.80
2022-09-20T15:00:49.287Z,2.50
2022-09-20T15:03:24.643Z,2.60
2022-09-20T15:05:53.042Z,2.60
2022-09-20T15:08:21.549Z,2.50
2022-09-20T15:10:50.285Z,2.90
2022-09-20T15:13:19.180Z,2.30
2022-09-20T15:15:51.326Z,1.20
2022-09-20T15:18:21.611Z,1.00
2022-09-20T15:20:50.721Z,0.90
2022-09-20T15:23:19.637Z,0.60
2022-09-20T15:25:51.153Z,0.80
2022-09-20T15:28:19.865Z,0.90
2022-09-20T15:30:49.951Z,1.00
2022-09-20T15:33:19.184Z,0.80
2022-09-20T15:35:48.121Z,1.10
2022-09-20T15:38:18.214Z,1.00
2022-09-20T15:40:48.556Z,1.00
2022-09-20T15:43:19.043Z,0.90
2022-09-20T15:45:49.534Z,1.00
2022-09-20T15:48:22.626Z,0.80
2022-09-20T15:51:02.383Z,1.00
2022-09-20T15:53:33.278Z,1.00
2022-09-20T15:56:03.700Z,1.20
2022-09-20T15:58:36.113Z,1.10
2022-09-20T16:01:08.419Z,1.20
2022-09-20T16:03:37.335Z,1.80
2022-09-20T16:06:07.756Z,1.20
2022-09-20T16:08:37.675Z,1.30
2022-09-20T16:11:08.053Z,1.40
2022-09-20T16:13:38.206Z,1.90
2022-09-20T16:16:08.214Z,1.70
2022-09-20T16:18:57.472Z,2.00
2022-09-20T16:21:26.357Z,1.90
2022-09-20T16:23:56.522Z,1.90
2022-09-20T16:26:26.338Z,2.50
2022-09-20T16:28:55.885Z,2.50
2022-09-20T16:31:32.192Z,2.90
2022-09-20T16:34:01.700Z,2.50
2022-09-20T16:36:30.288Z,2.30
2022-09-20T16:38:58.794Z,2.80
2022-09-20T16:41:28.465Z,2.40
2022-09-20T16:43:56.969Z,2.90
2022-09-20T16:46:26.873Z,2.80
2022-09-20T16:48:56.440Z,3.30
2022-09-20T16:51:29.308Z,3.50
2022-09-20T16:53:59.022Z,3.40
2022-09-20T16:56:30.254Z,3.40
2022-09-20T16:58:59.189Z,2.60
2022-09-20T17:01:28.742Z,2.70
2022-09-20T17:03:57.096Z,3.00
2022-09-20T17:06:26.310Z,2.50
2022-09-20T17:09:00.028Z,2.90
2022-09-20T17:11:35.910Z,2.60
2022-09-20T17:14:05.346Z,2.70
2022-09-20T17:16:35.834Z,2.80
2022-09-20T17:19:06.787Z,2.90
2022-09-20T17:21:36.660Z,3.10
2022-09-20T17:24:06.613Z,2.90
2022-09-20T17:26:38.091Z,3.00
2022-09-20T17:29:09.276Z,2.50
2022-09-20T17:31:41.795Z,2.70
2022-09-20T17:34:14.640Z,3.00
2022-09-20T17:36:44.296Z,2.60
2022-09-20T17:39:14.202Z,3.20
2022-09-20T17:41:45.610Z,2.60
2022-09-20T17:44:14.661Z,2.90
2022-09-20T17:46:44.638Z,3.40
2022-09-20T17:49:21.707Z,3.20
2022-09-20T17:51:51.739Z,4.20
2022-09-20T17:54:21.767Z,4.70
2022-09-20T17:56:52.122Z,3.30
2022-09-20T17:59:21.003Z,3.60
2022-09-20T18:01:55.096Z,3.20
2022-09-20T18:04:24.714Z,3.40
2022-09-20T18:06:54.200Z,3.60
2022-09-20T18:09:24.933Z,3.10
2022-09-20T18:11:54.945Z,3.70
2022-09-20T18:14:27.034Z,3.30
2022-09-20T18:16:59.503Z,3.30
2022-09-20T18:19:32.682Z,4.20
2022-09-20T18:22:02.088Z,3.90
2022-09-20T18:24:30.990Z,3.70
2022-09-20T18:27:00.610Z,3.80
2022-09-20T18:29:33.263Z,3.70
2022-09-20T18:32:03.380Z,3.80
2022-09-20T18:34:33.709Z,3.80
2022-09-20T18:37:05.651Z,3.80
2022-09-20T18:39:34.571Z,3.80
2022-09-20T18:42:04.893Z,3.70
2022-09-20T18:44:35.234Z,3.50
2022-09-20T18:47:05.127Z,3.80
2022-09-20T18:49:34.080Z,4.00
2022-09-20T18:52:03.233Z,3.90
2022-09-20T18:54:32.739Z,3.50
2022-09-20T18:57:02.912Z,3.30
2022-09-20T18:59:32.256Z,3.10
2022-09-20T19:02:19.023Z,3.10
2022-09-20T19:05:05.173Z,3.00
2022-09-20T19:07:42.380Z,3.00
2022-09-20T19:10:18.893Z,3.20
2022-09-20T19:12:56.176Z,3.40
2022-09-20T19:15:38.596Z,3.60
2022-09-20T19:18:24.813Z,3.60
2022-09-20T19:20:58.480Z,3.70
2022-09-20T19:23:40.652Z,4.80
2022-09-20T19:26:18.854Z,4.40
2022-09-20T19:28:48.810Z,7.60
2022-09-20T19:31:23.848Z,5.20
2022-09-20T19:33:54.592Z,5.90
2022-09-20T19:36:32.418Z,4.60
2022-09-20T19:39:06.609Z,5.80
2022-09-20T19:41:46.712Z,4.60
2022-09-20T19:44:26.860Z,5.30
2022-09-20T19:47:10.276Z,5.50
2022-09-20T19:49:48.728Z,5.40
2022-09-20T19:52:18.445Z,5.40
2022-09-20T19:54:50.824Z,5.10
2022-09-20T19:57:26.254Z,5.40
2022-09-20T19:59:56.016Z,5.10
2022-09-20T20:02:26.982Z,5.00
2022-09-20T20:04:56.422Z,5.90
2022-09-20T20:07:32.744Z,6.00
2022-09-20T20:10:10.166Z,5.90
2022-09-20T20:12:47.635Z,5.90
2022-09-20T20:15:25.482Z,6.10
2022-09-20T20:18:00.102Z,6.10
2022-09-20T20:20:33.342Z,6.60
2022-09-20T20:23:39.464Z,6.80
2022-09-20T20:26:09.746Z,7.10
2022-09-20T20:28:37.844Z,7.00
2022-09-20T20:31:06.649Z,7.70
2022-09-20T20:33:35.503Z,7.30
2022-09-20T20:36:08.476Z,6.40
2022-09-20T20:38:37.115Z,6.90
2022-09-20T20:41:07.094Z,6.10
2022-09-20T20:43:37.013Z,6.70
2022-09-20T20:46:06.963Z,6.00
2022-09-20T20:48:36.398Z,6.90
2022-09-20T20:51:08.302Z,7.00
2022-09-20T20:53:37.952Z,7.00
2022-09-20T20:56:08.783Z,6.90
2022-09-20T20:58:40.360Z,7.20
2022-09-20T21:01:12.855Z,7.80
2022-09-20T21:03:50.047Z,7.70
2022-09-20T21:06:20.777Z,8.80
2022-09-20T21:08:50.133Z,9.20
2022-09-20T21:11:21.362Z,8.20
2022-09-20T21:13:50.019Z,8.60
2022-09-20T21:16:20.326Z,8.60
2022-09-20T21:18:50.080Z,8.30
2022-09-20T21:21:19.998Z,8.20
2022-09-20T21:23:50.208Z,8.70
2022-09-20T21:26:19.450Z,7.40
2022-09-20T21:28:51.943Z,8.20
2022-09-20T21:31:21.774Z,7.90
2022-09-20T21:33:50.495Z,8.60
2022-09-20T21:36:21.423Z,8.50
2022-09-20T21:38:49.807Z,8.00
2022-09-20T21:41:21.515Z,7.70
2022-09-20T21:43:54.840Z,7.40
2022-09-20T21:46:25.802Z,8.60
2022-09-20T21:48:56.058Z,8.10
2022-09-20T21:51:25.755Z,8.50
2022-09-20T21:53:55.925Z,10.30
2022-09-20T21:56:26.922Z,10.40
2022-09-20T21:58:56.058Z,11.50
2022-09-20T22:01:25.647Z,11.20
2022-09-20T22:03:58.588Z,10.60
2022-09-20T22:06:29.188Z,10.30
2022-09-20T22:09:00.665Z,10.40
2022-09-20T22:11:31.135Z,10.90
2022-09-20T22:14:00.245Z,9.20
2022-09-20T22:16:30.424Z,11.70
2022-09-20T22:19:00.655Z,11.60
2022-09-20T22:21:30.995Z,12.80
2022-09-20T22:24:01.073Z,12.70
2022-09-20T22:26:31.119Z,13.00
2022-09-20T22:28:59.841Z,13.70
2022-09-20T22:31:29.754Z,14.30
2022-09-20T22:33:59.581Z,13.50
2022-09-20T22:36:29.655Z,13.50
2022-09-20T22:38:58.306Z,13.50
2022-09-20T22:41:27.673Z,13.20
2022-09-20T22:43:55.959Z,13.50
2022-09-20T22:46:26.693Z,12.40
2022-09-20T22:48:55.627Z,12.50
2022-09-20T22:51:25.447Z,12.90
2022-09-20T22:53:54.053Z,13.70
2022-09-20T22:56:24.268Z,15.40
2022-09-20T22:58:54.962Z,15.10
2022-09-20T23:01:26.367Z,15.30
2022-09-20T23:03:56.319Z,15.40
2022-09-20T23:06:26.129Z,15.50
2022-09-20T23:08:58.429Z,14.60
2022-09-20T23:11:27.198Z,12.90
2022-09-20T23:13:56.895Z,13.40
2022-09-20T23:16:26.518Z,13.20
2022-09-20T23:18:55.875Z,12.00
2022-09-20T23:21:25.926Z,12.50
2022-09-20T23:23:55.738Z,13.00
2022-09-20T23:26:24.868Z,12.90
2022-09-20T23:28:55.171Z,11.30
2022-09-20T23:31:24.700Z,12.90
2022-09-20T23:33:54.641Z,11.20
2022-09-20T23:36:25.023Z,11.10
2022-09-20T23:38:53.547Z,11.10
2022-09-20T23:41:23.142Z,10.80
2022-09-20T23:43:52.027Z,11.20
2022-09-20T23:46:22.222Z,10.60
2022-09-20T23:48:51.088Z,11.30
2022-09-20T23:51:22.305Z,10.60
2022-09-20T23:53:51.233Z,10.40
2022-09-20T23:56:20.482Z,11.20
2022-09-20T23:58:49.681Z,10.80
